sensor_id;sensor_type;location;lat;lon;timestamp;P1;durP1;ratioP1;P2;durP2;ratioP2
37593;SDS011;23441;50.856;6.076;2023-05-01T00:01:37;6.65;;;3.60;;
37593;SDS011;23441;50.856;6.076;2023-05-01T00:04:03;6.28;;;3.22;;
37593;SDS011;23441;50.856;6.076;2023-05-01T00:06:29;7.70;;;3.30;;
37593;SDS011;23441;50.856;6.076;2023-05-01T00:08:55;5.43;;;3.30;;
37593;SDS011;23441;50.856;6.076;2023-05-01T00:11:21;7.65;;;3.28;;
37593;SDS011;23441;50.856;6.076;2023-05-01T00:13:46;9.35;;;3.25;;
37593;SDS011;23441;50.856;6.076;2023-05-01T00:16:12;6.57;;;3.40;;
37593;SDS011;23441;50.856;6.076;2023-05-01T00:18:38;6.25;;;3.20;;
37593;SDS011;23441;50.856;6.076;2023-05-01T00:21:04;4.40;;;3.17;;
37593;SDS011;23441;50.856;6.076;2023-05-01T00:23:29;10.20;;;3.33;;
37593;SDS011;23441;50.856;6.076;2023-05-01T00:25:55;5.05;;;3.67;;
37593;SDS011;23441;50.856;6.076;2023-05-01T00:28:21;5.97;;;3.25;;
37593;SDS011;23441;50.856;6.076;2023-05-01T00:30:46;5.32;;;3.30;;
37593;SDS011;23441;50.856;6.076;2023-05-01T00:33:12;6.80;;;3.67;;
37593;SDS011;23441;50.856;6.076;2023-05-01T00:35:38;7.00;;;3.25;;
37593;SDS011;23441;50.856;6.076;2023-05-01T00:38:03;6.43;;;3.75;;
37593;SDS011;23441;50.856;6.076;2023-05-01T00:40:29;5.43;;;3.72;;
37593;SDS011;23441;50.856;6.076;2023-05-01T00:42:55;5.13;;;3.90;;
37593;SDS011;23441;50.856;6.076;2023-05-01T00:45:21;5.55;;;3.47;;
37593;SDS011;23441;50.856;6.076;2023-05-01T00:47:46;6.60;;;3.40;;
37593;SDS011;23441;50.856;6.076;2023-05-01T00:50:12;5.38;;;3.60;;
37593;SDS011;23441;50.856;6.076;2023-05-01T00:52:38;5.78;;;3.45;;
37593;SDS011;23441;50.856;6.076;2023-05-01T00:55:04;8.55;;;3.90;;
37593;SDS011;23441;50.856;6.076;2023-05-01T00:57:30;5.53;;;3.38;;
37593;SDS011;23441;50.856;6.076;2023-05-01T00:59:56;7.13;;;3.47;;
37593;SDS011;23441;50.856;6.076;2023-05-01T01:02:22;5.13;;;3.60;;
37593;SDS011;23441;50.856;6.076;2023-05-01T01:04:48;5.68;;;3.60;;
37593;SDS011;23441;50.856;6.076;2023-05-01T01:07:18;5.57;;;3.72;;
37593;SDS011;23441;50.856;6.076;2023-05-01T01:15:30;5.78;;;3.60;;
37593;SDS011;23441;50.856;6.076;2023-05-01T01:18:22;8.48;;;3.40;;
37593;SDS011;23441;50.856;6.076;2023-05-01T01:23:48;6.25;;;3.28;;
37593;SDS011;23441;50.856;6.076;2023-05-01T01:29:29;6.22;;;3.85;;
37593;SDS011;23441;50.856;6.076;2023-05-01T01:35:07;5.75;;;3.25;;
37593;SDS011;23441;50.856;6.076;2023-05-01T01:37:40;9.57;;;4.10;;
37593;SDS011;23441;50.856;6.076;2023-05-01T01:42:39;4.88;;;3.47;;
37593;SDS011;23441;50.856;6.076;2023-05-01T01:45:18;4.47;;;3.20;;
37593;SDS011;23441;50.856;6.076;2023-05-01T01:47:49;7.85;;;3.95;;
37593;SDS011;23441;50.856;6.076;2023-05-01T01:50:17;7.43;;;3.28;;
37593;SDS011;23441;50.856;6.076;2023-05-01T01:52:46;5.55;;;3.97;;
37593;SDS011;23441;50.856;6.076;2023-05-01T01:55:13;5.50;;;3.55;;
37593;SDS011;23441;50.856;6.076;2023-05-01T01:57:41;4.90;;;3.85;;
37593;SDS011;23441;50.856;6.076;2023-05-01T02:00:09;8.68;;;5.00;;
37593;SDS011;23441;50.856;6.076;2023-05-01T02:02:38;6.75;;;4.03;;
37593;SDS011;23441;50.856;6.076;2023-05-01T02:05:08;7.90;;;4.03;;
37593;SDS011;23441;50.856;6.076;2023-05-01T02:07:37;4.22;;;3.75;;
37593;SDS011;23441;50.856;6.076;2023-05-01T02:10:05;8.25;;;4.32;;
37593;SDS011;23441;50.856;6.076;2023-05-01T02:12:36;8.75;;;4.18;;
37593;SDS011;23441;50.856;6.076;2023-05-01T02:15:04;6.15;;;4.00;;
37593;SDS011;23441;50.856;6.076;2023-05-01T02:17:31;6.70;;;4.07;;
37593;SDS011;23441;50.856;6.076;2023-05-01T02:19:59;8.18;;;3.83;;
37593;SDS011;23441;50.856;6.076;2023-05-01T02:22:26;7.22;;;4.55;;
37593;SDS011;23441;50.856;6.076;2023-05-01T02:24:52;7.95;;;4.25;;
37593;SDS011;23441;50.856;6.076;2023-05-01T02:27:22;7.40;;;4.22;;
37593;SDS011;23441;50.856;6.076;2023-05-01T02:29:50;6.55;;;3.67;;
37593;SDS011;23441;50.856;6.076;2023-05-01T02:32:17;6.68;;;3.75;;
37593;SDS011;23441;50.856;6.076;2023-05-01T02:34:43;5.43;;;3.45;;
37593;SDS011;23441;50.856;6.076;2023-05-01T02:37:09;7.38;;;3.83;;
37593;SDS011;23441;50.856;6.076;2023-05-01T02:39:36;4.05;;;3.50;;
37593;SDS011;23441;50.856;6.076;2023-05-01T02:42:03;6.93;;;3.42;;
37593;SDS011;23441;50.856;6.076;2023-05-01T02:44:38;6.25;;;3.63;;
37593;SDS011;23441;50.856;6.076;2023-05-01T02:47:11;4.35;;;3.60;;
37593;SDS011;23441;50.856;6.076;2023-05-01T02:49:41;9.60;;;5.95;;
37593;SDS011;23441;50.856;6.076;2023-05-01T02:52:09;7.22;;;4.40;;
37593;SDS011;23441;50.856;6.076;2023-05-01T02:54:36;7.85;;;3.80;;
37593;SDS011;23441;50.856;6.076;2023-05-01T02:57:03;5.10;;;3.70;;
37593;SDS011;23441;50.856;6.076;2023-05-01T02:59:29;7.93;;;3.97;;
37593;SDS011;23441;50.856;6.076;2023-05-01T03:01:55;8.63;;;4.93;;
37593;SDS011;23441;50.856;6.076;2023-05-01T03:04:21;6.07;;;4.22;;
37593;SDS011;23441;50.856;6.076;2023-05-01T03:06:47;6.90;;;4.63;;
37593;SDS011;23441;50.856;6.076;2023-05-01T03:09:12;8.05;;;4.80;;
37593;SDS011;23441;50.856;6.076;2023-05-01T03:11:38;3.60;;;3.30;;
37593;SDS011;23441;50.856;6.076;2023-05-01T03:14:03;6.70;;;4.22;;
37593;SDS011;23441;50.856;6.076;2023-05-01T03:16:30;5.45;;;3.60;;
37593;SDS011;23441;50.856;6.076;2023-05-01T03:18:55;8.88;;;3.95;;
37593;SDS011;23441;50.856;6.076;2023-05-01T03:21:21;7.93;;;3.88;;
37593;SDS011;23441;50.856;6.076;2023-05-01T03:23:46;6.22;;;3.83;;
37593;SDS011;23441;50.856;6.076;2023-05-01T03:26:13;6.25;;;3.58;;
37593;SDS011;23441;50.856;6.076;2023-05-01T03:28:39;5.85;;;3.75;;
37593;SDS011;23441;50.856;6.076;2023-05-01T03:31:04;8.13;;;3.72;;
37593;SDS011;23441;50.856;6.076;2023-05-01T03:33:30;6.15;;;4.03;;
37593;SDS011;23441;50.856;6.076;2023-05-01T03:36:02;11.20;;;3.83;;
37593;SDS011;23441;50.856;6.076;2023-05-01T03:38:30;5.47;;;3.90;;
37593;SDS011;23441;50.856;6.076;2023-05-01T03:40:56;5.50;;;3.65;;
37593;SDS011;23441;50.856;6.076;2023-05-01T03:43:22;9.57;;;4.20;;
37593;SDS011;23441;50.856;6.076;2023-05-01T03:45:49;5.68;;;3.85;;
37593;SDS011;23441;50.856;6.076;2023-05-01T03:48:15;6.82;;;3.60;;
37593;SDS011;23441;50.856;6.076;2023-05-01T03:50:41;11.48;;;4.55;;
37593;SDS011;23441;50.856;6.076;2023-05-01T03:53:07;16.27;;;6.05;;
37593;SDS011;23441;50.856;6.076;2023-05-01T03:55:32;16.95;;;6.57;;
37593;SDS011;23441;50.856;6.076;2023-05-01T03:57:58;13.38;;;6.00;;
37593;SDS011;23441;50.856;6.076;2023-05-01T04:00:24;7.30;;;4.95;;
37593;SDS011;23441;50.856;6.076;2023-05-01T04:02:50;10.50;;;4.50;;
37593;SDS011;23441;50.856;6.076;2023-05-01T04:05:17;5.65;;;4.10;;
37593;SDS011;23441;50.856;6.076;2023-05-01T04:07:43;7.40;;;3.95;;
37593;SDS011;23441;50.856;6.076;2023-05-01T04:10:09;8.60;;;3.95;;
37593;SDS011;23441;50.856;6.076;2023-05-01T04:12:35;6.15;;;4.13;;
37593;SDS011;23441;50.856;6.076;2023-05-01T04:15:00;6.43;;;4.35;;
37593;SDS011;23441;50.856;6.076;2023-05-01T04:17:28;7.25;;;4.22;;
37593;SDS011;23441;50.856;6.076;2023-05-01T04:19:54;7.68;;;4.55;;
37593;SDS011;23441;50.856;6.076;2023-05-01T04:22:20;5.38;;;4.20;;
37593;SDS011;23441;50.856;6.076;2023-05-01T04:24:47;5.28;;;4.00;;
37593;SDS011;23441;50.856;6.076;2023-05-01T04:27:13;7.32;;;4.40;;
37593;SDS011;23441;50.856;6.076;2023-05-01T04:29:39;11.05;;;4.40;;
37593;SDS011;23441;50.856;6.076;2023-05-01T04:32:06;5.80;;;4.70;;
37593;SDS011;23441;50.856;6.076;2023-05-01T04:34:31;7.93;;;4.05;;
37593;SDS011;23441;50.856;6.076;2023-05-01T04:36:57;6.60;;;4.43;;
37593;SDS011;23441;50.856;6.076;2023-05-01T04:39:23;7.60;;;4.05;;
37593;SDS011;23441;50.856;6.076;2023-05-01T04:41:49;7.45;;;3.83;;
37593;SDS011;23441;50.856;6.076;2023-05-01T04:44:14;6.03;;;4.10;;
37593;SDS011;23441;50.856;6.076;2023-05-01T04:46:40;7.35;;;4.38;;
37593;SDS011;23441;50.856;6.076;2023-05-01T04:49:06;8.88;;;4.05;;
37593;SDS011;23441;50.856;6.076;2023-05-01T04:51:32;5.22;;;4.07;;
37593;SDS011;23441;50.856;6.076;2023-05-01T04:53:57;5.82;;;3.83;;
37593;SDS011;23441;50.856;6.076;2023-05-01T04:56:24;8.27;;;4.45;;
37593;SDS011;23441;50.856;6.076;2023-05-01T04:58:50;9.18;;;5.38;;
37593;SDS011;23441;50.856;6.076;2023-05-01T05:01:16;5.75;;;4.18;;
37593;SDS011;23441;50.856;6.076;2023-05-01T05:03:41;7.03;;;4.40;;
37593;SDS011;23441;50.856;6.076;2023-05-01T05:06:07;5.88;;;4.15;;
37593;SDS011;23441;50.856;6.076;2023-05-01T05:08:33;6.70;;;4.43;;
37593;SDS011;23441;50.856;6.076;2023-05-01T05:10:59;4.40;;;4.00;;
37593;SDS011;23441;50.856;6.076;2023-05-01T05:13:25;5.75;;;4.40;;
37593;SDS011;23441;50.856;6.076;2023-05-01T05:15:51;8.55;;;4.70;;
37593;SDS011;23441;50.856;6.076;2023-05-01T05:18:17;6.78;;;4.32;;
37593;SDS011;23441;50.856;6.076;2023-05-01T05:20:42;6.30;;;4.60;;
37593;SDS011;23441;50.856;6.076;2023-05-01T05:23:08;7.05;;;4.40;;
37593;SDS011;23441;50.856;6.076;2023-05-01T05:25:34;6.72;;;3.97;;
37593;SDS011;23441;50.856;6.076;2023-05-01T05:28:00;8.82;;;4.68;;
37593;SDS011;23441;50.856;6.076;2023-05-01T05:30:25;5.25;;;4.30;;
37593;SDS011;23441;50.856;6.076;2023-05-01T05:32:52;5.15;;;4.10;;
37593;SDS011;23441;50.856;6.076;2023-05-01T05:35:17;7.25;;;5.00;;
37593;SDS011;23441;50.856;6.076;2023-05-01T05:37:43;7.43;;;4.68;;
37593;SDS011;23441;50.856;6.076;2023-05-01T05:40:09;6.95;;;4.45;;
37593;SDS011;23441;50.856;6.076;2023-05-01T05:42:35;7.43;;;4.50;;
37593;SDS011;23441;50.856;6.076;2023-05-01T05:45:00;5.43;;;3.97;;
37593;SDS011;23441;50.856;6.076;2023-05-01T05:47:26;6.95;;;3.92;;
37593;SDS011;23441;50.856;6.076;2023-05-01T05:49:51;10.77;;;3.88;;
37593;SDS011;23441;50.856;6.076;2023-05-01T05:52:19;8.85;;;4.28;;
37593;SDS011;23441;50.856;6.076;2023-05-01T05:54:45;4.55;;;3.33;;
37593;SDS011;23441;50.856;6.076;2023-05-01T05:57:11;6.45;;;3.33;;
37593;SDS011;23441;50.856;6.076;2023-05-01T05:59:36;4.07;;;3.45;;
37593;SDS011;23441;50.856;6.076;2023-05-01T06:02:02;5.47;;;3.15;;
37593;SDS011;23441;50.856;6.076;2023-05-01T06:04:28;5.03;;;3.10;;
37593;SDS011;23441;50.856;6.076;2023-05-01T06:06:54;4.38;;;3.08;;
37593;SDS011;23441;50.856;6.076;2023-05-01T06:09:20;5.63;;;3.67;;
37593;SDS011;23441;50.856;6.076;2023-05-01T06:11:45;6.43;;;3.40;;
37593;SDS011;23441;50.856;6.076;2023-05-01T06:14:12;7.72;;;2.83;;
37593;SDS011;23441;50.856;6.076;2023-05-01T06:16:38;4.53;;;2.92;;
37593;SDS011;23441;50.856;6.076;2023-05-01T06:19:03;5.93;;;3.10;;
37593;SDS011;23441;50.856;6.076;2023-05-01T06:21:30;5.13;;;2.80;;
37593;SDS011;23441;50.856;6.076;2023-05-01T06:23:56;8.18;;;3.30;;
37593;SDS011;23441;50.856;6.076;2023-05-01T06:26:22;4.15;;;3.33;;
37593;SDS011;23441;50.856;6.076;2023-05-01T06:28:47;5.50;;;3.17;;
37593;SDS011;23441;50.856;6.076;2023-05-01T06:31:13;3.95;;;3.00;;
37593;SDS011;23441;50.856;6.076;2023-05-01T06:33:39;2.90;;;2.58;;
37593;SDS011;23441;50.856;6.076;2023-05-01T06:36:05;2.85;;;2.55;;
37593;SDS011;23441;50.856;6.076;2023-05-01T06:38:31;5.53;;;2.85;;
37593;SDS011;23441;50.856;6.076;2023-05-01T06:40:59;3.20;;;2.40;;
37593;SDS011;23441;50.856;6.076;2023-05-01T06:43:25;5.40;;;2.50;;
37593;SDS011;23441;50.856;6.076;2023-05-01T06:45:54;2.97;;;2.20;;
37593;SDS011;23441;50.856;6.076;2023-05-01T06:48:20;3.80;;;2.47;;
37593;SDS011;23441;50.856;6.076;2023-05-01T06:50:46;2.67;;;2.30;;
37593;SDS011;23441;50.856;6.076;2023-05-01T06:53:12;4.20;;;2.47;;
37593;SDS011;23441;50.856;6.076;2023-05-01T06:55:38;3.78;;;2.40;;
37593;SDS011;23441;50.856;6.076;2023-05-01T06:58:03;3.05;;;2.22;;
37593;SDS011;23441;50.856;6.076;2023-05-01T07:00:30;2.92;;;1.98;;
37593;SDS011;23441;50.856;6.076;2023-05-01T07:02:56;3.47;;;2.42;;
37593;SDS011;23441;50.856;6.076;2023-05-01T07:05:22;3.40;;;1.67;;
37593;SDS011;23441;50.856;6.076;2023-05-01T07:07:47;2.00;;;1.40;;
37593;SDS011;23441;50.856;6.076;2023-05-01T07:10:13;3.10;;;1.50;;
37593;SDS011;23441;50.856;6.076;2023-05-01T07:12:39;2.38;;;1.83;;
37593;SDS011;23441;50.856;6.076;2023-05-01T07:15:05;3.65;;;1.50;;
37593;SDS011;23441;50.856;6.076;2023-05-01T07:17:31;2.53;;;1.45;;
37593;SDS011;23441;50.856;6.076;2023-05-01T07:19:58;6.28;;;1.88;;
37593;SDS011;23441;50.856;6.076;2023-05-01T07:22:24;1.98;;;1.60;;
37593;SDS011;23441;50.856;6.076;2023-05-01T07:24:50;1.60;;;1.50;;
37593;SDS011;23441;50.856;6.076;2023-05-01T07:27:15;2.05;;;1.60;;
37593;SDS011;23441;50.856;6.076;2023-05-01T07:29:41;3.33;;;1.90;;
37593;SDS011;23441;50.856;6.076;2023-05-01T07:32:07;2.83;;;1.83;;
37593;SDS011;23441;50.856;6.076;2023-05-01T07:34:32;2.00;;;1.73;;
37593;SDS011;23441;50.856;6.076;2023-05-01T07:36:58;2.58;;;1.73;;
37593;SDS011;23441;50.856;6.076;2023-05-01T07:39:24;1.90;;;1.65;;
37593;SDS011;23441;50.856;6.076;2023-05-01T07:41:50;5.07;;;2.20;;
37593;SDS011;23441;50.856;6.076;2023-05-01T07:44:16;2.10;;;1.83;;
37593;SDS011;23441;50.856;6.076;2023-05-01T07:46:41;4.45;;;2.13;;
37593;SDS011;23441;50.856;6.076;2023-05-01T07:49:07;3.05;;;2.22;;
37593;SDS011;23441;50.856;6.076;2023-05-01T07:51:32;2.95;;;1.90;;
37593;SDS011;23441;50.856;6.076;2023-05-01T07:53:58;2.75;;;2.28;;
37593;SDS011;23441;50.856;6.076;2023-05-01T07:56:31;3.05;;;2.15;;
37593;SDS011;23441;50.856;6.076;2023-05-01T07:58:57;5.05;;;2.13;;
37593;SDS011;23441;50.856;6.076;2023-05-01T08:01:23;2.38;;;1.90;;
37593;SDS011;23441;50.856;6.076;2023-05-01T08:03:49;2.67;;;1.88;;
37593;SDS011;23441;50.856;6.076;2023-05-01T08:06:15;3.28;;;2.00;;
37593;SDS011;23441;50.856;6.076;2023-05-01T08:08:40;2.50;;;2.15;;
37593;SDS011;23441;50.856;6.076;2023-05-01T08:11:07;3.35;;;2.67;;
37593;SDS011;23441;50.856;6.076;2023-05-01T08:13:33;2.60;;;2.40;;
37593;SDS011;23441;50.856;6.076;2023-05-01T08:16:02;3.58;;;2.65;;
37593;SDS011;23441;50.856;6.076;2023-05-01T08:18:28;2.75;;;2.20;;
37593;SDS011;23441;50.856;6.076;2023-05-01T08:20:54;4.15;;;2.60;;
37593;SDS011;23441;50.856;6.076;2023-05-01T08:23:20;3.35;;;2.45;;
37593;SDS011;23441;50.856;6.076;2023-05-01T08:25:46;4.03;;;2.30;;
37593;SDS011;23441;50.856;6.076;2023-05-01T08:28:15;4.18;;;2.33;;
37593;SDS011;23441;50.856;6.076;2023-05-01T08:30:41;4.50;;;2.85;;
37593;SDS011;23441;50.856;6.076;2023-05-01T08:33:08;4.00;;;2.60;;
37593;SDS011;23441;50.856;6.076;2023-05-01T08:35:34;4.30;;;2.72;;
37593;SDS011;23441;50.856;6.076;2023-05-01T08:37:59;4.88;;;2.67;;
37593;SDS011;23441;50.856;6.076;2023-05-01T08:40:25;3.72;;;2.70;;
37593;SDS011;23441;50.856;6.076;2023-05-01T08:42:51;2.63;;;2.40;;
37593;SDS011;23441;50.856;6.076;2023-05-01T08:45:19;5.57;;;2.60;;
37593;SDS011;23441;50.856;6.076;2023-05-01T08:47:47;4.30;;;2.88;;
37593;SDS011;23441;50.856;6.076;2023-05-01T08:50:15;4.65;;;2.35;;
37593;SDS011;23441;50.856;6.076;2023-05-01T08:52:42;3.10;;;2.38;;
37593;SDS011;23441;50.856;6.076;2023-05-01T08:55:10;3.17;;;2.72;;
37593;SDS011;23441;50.856;6.076;2023-05-01T08:57:38;4.68;;;2.63;;
37593;SDS011;23441;50.856;6.076;2023-05-01T09:00:08;4.80;;;3.05;;
37593;SDS011;23441;50.856;6.076;2023-05-01T09:02:38;4.85;;;3.25;;
37593;SDS011;23441;50.856;6.076;2023-05-01T09:05:06;3.85;;;3.20;;
37593;SDS011;23441;50.856;6.076;2023-05-01T09:07:33;5.30;;;3.63;;
37593;SDS011;23441;50.856;6.076;2023-05-01T09:09:59;5.03;;;3.50;;
37593;SDS011;23441;50.856;6.076;2023-05-01T09:12:25;5.47;;;3.65;;
37593;SDS011;23441;50.856;6.076;2023-05-01T09:14:51;4.60;;;4.15;;
37593;SDS011;23441;50.856;6.076;2023-05-01T09:17:18;4.40;;;3.90;;
37593;SDS011;23441;50.856;6.076;2023-05-01T09:19:45;5.40;;;3.88;;
37593;SDS011;23441;50.856;6.076;2023-05-01T09:22:12;5.65;;;4.40;;
37593;SDS011;23441;50.856;6.076;2023-05-01T09:24:38;6.75;;;4.45;;
37593;SDS011;23441;50.856;6.076;2023-05-01T09:27:04;5.97;;;4.60;;
37593;SDS011;23441;50.856;6.076;2023-05-01T09:29:40;6.40;;;4.70;;
37593;SDS011;23441;50.856;6.076;2023-05-01T09:34:40;6.60;;;4.35;;
37593;SDS011;23441;50.856;6.076;2023-05-01T09:37:09;6.53;;;4.55;;
37593;SDS011;23441;50.856;6.076;2023-05-01T09:39:37;5.65;;;4.60;;
37593;SDS011;23441;50.856;6.076;2023-05-01T09:42:03;6.03;;;4.25;;
37593;SDS011;23441;50.856;6.076;2023-05-01T09:44:29;5.70;;;4.65;;
37593;SDS011;23441;50.856;6.076;2023-05-01T09:46:55;6.82;;;4.43;;
37593;SDS011;23441;50.856;6.076;2023-05-01T09:49:30;6.45;;;5.03;;
37593;SDS011;23441;50.856;6.076;2023-05-01T09:52:10;7.28;;;4.97;;
37593;SDS011;23441;50.856;6.076;2023-05-01T09:54:36;8.02;;;5.40;;
37593;SDS011;23441;50.856;6.076;2023-05-01T09:57:01;7.63;;;4.95;;
37593;SDS011;23441;50.856;6.076;2023-05-01T09:59:28;6.40;;;4.97;;
37593;SDS011;23441;50.856;6.076;2023-05-01T10:01:56;8.40;;;5.40;;
37593;SDS011;23441;50.856;6.076;2023-05-01T10:04:31;8.55;;;5.60;;
37593;SDS011;23441;50.856;6.076;2023-05-01T10:07:12;8.75;;;5.63;;
37593;SDS011;23441;50.856;6.076;2023-05-01T10:09:39;7.68;;;5.20;;
37593;SDS011;23441;50.856;6.076;2023-05-01T10:12:06;7.53;;;4.85;;
37593;SDS011;23441;50.856;6.076;2023-05-01T10:14:31;8.23;;;5.60;;
37593;SDS011;23441;50.856;6.076;2023-05-01T10:17:06;6.60;;;4.95;;
37593;SDS011;23441;50.856;6.076;2023-05-01T10:19:42;7.13;;;5.20;;
37593;SDS011;23441;50.856;6.076;2023-05-01T10:22:08;9.43;;;5.72;;
37593;SDS011;23441;50.856;6.076;2023-05-01T10:24:34;6.82;;;5.40;;
37593;SDS011;23441;50.856;6.076;2023-05-01T10:27:00;9.13;;;5.78;;
37593;SDS011;23441;50.856;6.076;2023-05-01T10:29:29;12.57;;;5.93;;
37593;SDS011;23441;50.856;6.076;2023-05-01T10:31:56;7.22;;;5.60;;
37593;SDS011;23441;50.856;6.076;2023-05-01T10:34:22;6.82;;;5.45;;
37593;SDS011;23441;50.856;6.076;2023-05-01T10:36:54;8.93;;;6.78;;
37593;SDS011;23441;50.856;6.076;2023-05-01T10:39:34;9.50;;;6.95;;
37593;SDS011;23441;50.856;6.076;2023-05-01T10:42:03;12.85;;;8.27;;
37593;SDS011;23441;50.856;6.076;2023-05-01T10:44:38;12.27;;;7.90;;
37593;SDS011;23441;50.856;6.076;2023-05-01T10:55:41;10.75;;;7.15;;
37593;SDS011;23441;50.856;6.076;2023-05-01T10:58:08;13.23;;;7.43;;
37593;SDS011;23441;50.856;6.076;2023-05-01T11:00:34;18.77;;;7.88;;
37593;SDS011;23441;50.856;6.076;2023-05-01T11:03:45;9.32;;;7.43;;
37593;SDS011;23441;50.856;6.076;2023-05-01T11:08:40;8.95;;;6.90;;
37593;SDS011;23441;50.856;6.076;2023-05-01T11:19:06;7.63;;;5.50;;
37593;SDS011;23441;50.856;6.076;2023-05-01T11:21:55;7.70;;;5.78;;
37593;SDS011;23441;50.856;6.076;2023-05-01T11:24:27;10.43;;;7.82;;
37593;SDS011;23441;50.856;6.076;2023-05-01T11:26:55;11.30;;;7.53;;
37593;SDS011;23441;50.856;6.076;2023-05-01T11:29:23;10.15;;;7.55;;
37593;SDS011;23441;50.856;6.076;2023-05-01T11:31:56;10.25;;;7.28;;
37593;SDS011;23441;50.856;6.076;2023-05-01T11:34:22;8.32;;;7.15;;
37593;SDS011;23441;50.856;6.076;2023-05-01T11:36:49;12.65;;;7.38;;
37593;SDS011;23441;50.856;6.076;2023-05-01T11:39:16;10.25;;;6.72;;
37593;SDS011;23441;50.856;6.076;2023-05-01T11:41:43;8.25;;;6.60;;
37593;SDS011;23441;50.856;6.076;2023-05-01T11:44:14;8.32;;;6.45;;
37593;SDS011;23441;50.856;6.076;2023-05-01T11:46:41;12.43;;;7.05;;
37593;SDS011;23441;50.856;6.076;2023-05-01T11:49:06;7.32;;;5.53;;
37593;SDS011;23441;50.856;6.076;2023-05-01T11:51:33;6.25;;;4.90;;
37593;SDS011;23441;50.856;6.076;2023-05-01T11:53:59;8.88;;;6.50;;
37593;SDS011;23441;50.856;6.076;2023-05-01T11:56:26;8.10;;;6.50;;
37593;SDS011;23441;50.856;6.076;2023-05-01T11:58:57;10.07;;;6.70;;
37593;SDS011;23441;50.856;6.076;2023-05-01T12:01:34;9.10;;;6.75;;
37593;SDS011;23441;50.856;6.076;2023-05-01T12:04:08;9.68;;;6.38;;
37593;SDS011;23441;50.856;6.076;2023-05-01T12:06:38;10.23;;;7.32;;
37593;SDS011;23441;50.856;6.076;2023-05-01T12:09:15;9.40;;;7.55;;
37593;SDS011;23441;50.856;6.076;2023-05-01T12:11:43;12.25;;;8.15;;
37593;SDS011;23441;50.856;6.076;2023-05-01T12:14:10;11.57;;;8.48;;
37593;SDS011;23441;50.856;6.076;2023-05-01T12:16:38;10.88;;;9.15;;
37593;SDS011;23441;50.856;6.076;2023-05-01T12:19:04;11.40;;;8.95;;
37593;SDS011;23441;50.856;6.076;2023-05-01T12:21:30;14.25;;;9.27;;
37593;SDS011;23441;50.856;6.076;2023-05-01T12:24:06;12.55;;;9.65;;
37593;SDS011;23441;50.856;6.076;2023-05-01T12:26:33;14.82;;;9.63;;
37593;SDS011;23441;50.856;6.076;2023-05-01T12:29:05;10.57;;;8.55;;
37593;SDS011;23441;50.856;6.076;2023-05-01T12:31:33;12.80;;;8.77;;
37593;SDS011;23441;50.856;6.076;2023-05-01T12:34:03;9.82;;;8.63;;
37593;SDS011;23441;50.856;6.076;2023-05-01T12:36:31;9.15;;;7.45;;
37593;SDS011;23441;50.856;6.076;2023-05-01T12:41:40;9.35;;;8.40;;
37593;SDS011;23441;50.856;6.076;2023-05-01T12:44:17;11.95;;;8.70;;
37593;SDS011;23441;50.856;6.076;2023-05-01T12:46:45;10.77;;;9.52;;
37593;SDS011;23441;50.856;6.076;2023-05-01T12:49:17;10.25;;;8.05;;
37593;SDS011;23441;50.856;6.076;2023-05-01T12:51:53;11.80;;;8.27;;
37593;SDS011;23441;50.856;6.076;2023-05-01T12:54:30;9.35;;;7.95;;
37593;SDS011;23441;50.856;6.076;2023-05-01T12:57:04;9.18;;;7.32;;
37593;SDS011;23441;50.856;6.076;2023-05-01T12:59:30;8.73;;;7.13;;
37593;SDS011;23441;50.856;6.076;2023-05-01T13:01:59;8.40;;;6.13;;
37593;SDS011;23441;50.856;6.076;2023-05-01T13:04:27;8.98;;;6.20;;
37593;SDS011;23441;50.856;6.076;2023-05-01T13:06:53;10.48;;;6.20;;
37593;SDS011;23441;50.856;6.076;2023-05-01T13:09:20;11.48;;;6.05;;
37593;SDS011;23441;50.856;6.076;2023-05-01T13:11:55;6.20;;;4.85;;
37593;SDS011;23441;50.856;6.076;2023-05-01T13:14:34;5.75;;;4.03;;
37593;SDS011;23441;50.856;6.076;2023-05-01T13:17:05;5.53;;;3.20;;
37593;SDS011;23441;50.856;6.076;2023-05-01T13:19:31;3.10;;;2.70;;
37593;SDS011;23441;50.856;6.076;2023-05-01T13:21:57;5.45;;;2.67;;
37593;SDS011;23441;50.856;6.076;2023-05-01T13:24:24;2.65;;;2.20;;
37593;SDS011;23441;50.856;6.076;2023-05-01T13:27:03;5.82;;;2.42;;
37593;SDS011;23441;50.856;6.076;2023-05-01T13:29:29;3.65;;;2.33;;
37593;SDS011;23441;50.856;6.076;2023-05-01T13:31:55;4.10;;;2.17;;
37593;SDS011;23441;50.856;6.076;2023-05-01T13:34:23;1.98;;;1.88;;
37593;SDS011;23441;50.856;6.076;2023-05-01T13:36:54;2.63;;;2.03;;
37593;SDS011;23441;50.856;6.076;2023-05-01T13:39:20;2.53;;;2.00;;
37593;SDS011;23441;50.856;6.076;2023-05-01T13:41:46;2.25;;;2.13;;
37593;SDS011;23441;50.856;6.076;2023-05-01T13:44:13;6.38;;;2.10;;
37593;SDS011;23441;50.856;6.076;2023-05-01T13:46:41;2.47;;;2.00;;
37593;SDS011;23441;50.856;6.076;2023-05-01T13:49:06;2.35;;;2.00;;
37593;SDS011;23441;50.856;6.076;2023-05-01T13:51:33;2.70;;;2.00;;
37593;SDS011;23441;50.856;6.076;2023-05-01T13:54:02;1.90;;;1.80;;
37593;SDS011;23441;50.856;6.076;2023-05-01T13:56:28;2.78;;;1.98;;
37593;SDS011;23441;50.856;6.076;2023-05-01T13:58:58;2.28;;;2.00;;
37593;SDS011;23441;50.856;6.076;2023-05-01T14:01:23;2.30;;;2.10;;
37593;SDS011;23441;50.856;6.076;2023-05-01T14:03:49;3.45;;;2.38;;
37593;SDS011;23441;50.856;6.076;2023-05-01T14:06:16;2.75;;;2.10;;
37593;SDS011;23441;50.856;6.076;2023-05-01T14:08:43;3.17;;;1.80;;
37593;SDS011;23441;50.856;6.076;2023-05-01T14:11:11;1.92;;;1.67;;
37593;SDS011;23441;50.856;6.076;2023-05-01T14:13:42;5.03;;;2.10;;
37593;SDS011;23441;50.856;6.076;2023-05-01T14:16:25;2.60;;;2.40;;
37593;SDS011;23441;50.856;6.076;2023-05-01T14:18:52;3.53;;;2.47;;
37593;SDS011;23441;50.856;6.076;2023-05-01T14:21:21;3.33;;;2.55;;
37593;SDS011;23441;50.856;6.076;2023-05-01T14:23:48;4.00;;;2.63;;
37593;SDS011;23441;50.856;6.076;2023-05-01T14:26:16;2.85;;;2.60;;
37593;SDS011;23441;50.856;6.076;2023-05-01T14:28:42;9.00;;;3.28;;
37593;SDS011;23441;50.856;6.076;2023-05-01T14:31:13;2.92;;;2.72;;
37593;SDS011;23441;50.856;6.076;2023-05-01T14:33:58;3.53;;;2.60;;
37593;SDS011;23441;50.856;6.076;2023-05-01T14:36:25;2.85;;;2.65;;
37593;SDS011;23441;50.856;6.076;2023-05-01T14:38:56;3.97;;;3.35;;
37593;SDS011;23441;50.856;6.076;2023-05-01T14:41:26;5.80;;;3.30;;
37593;SDS011;23441;50.856;6.076;2023-05-01T14:43:53;4.15;;;3.75;;
37593;SDS011;23441;50.856;6.076;2023-05-01T14:46:29;5.57;;;3.75;;
37593;SDS011;23441;50.856;6.076;2023-05-01T14:48:56;5.25;;;3.63;;
37593;SDS011;23441;50.856;6.076;2023-05-01T14:51:22;5.20;;;3.97;;
37593;SDS011;23441;50.856;6.076;2023-05-01T14:53:47;8.73;;;4.32;;
37593;SDS011;23441;50.856;6.076;2023-05-01T14:56:13;6.72;;;4.20;;
37593;SDS011;23441;50.856;6.076;2023-05-01T14:58:38;6.10;;;4.18;;
37593;SDS011;23441;50.856;6.076;2023-05-01T15:01:05;4.85;;;4.07;;
37593;SDS011;23441;50.856;6.076;2023-05-01T15:03:30;6.80;;;6.03;;
37593;SDS011;23441;50.856;6.076;2023-05-01T15:06:08;10.00;;;8.90;;
37593;SDS011;23441;50.856;6.076;2023-05-01T15:08:35;10.32;;;8.57;;
37593;SDS011;23441;50.856;6.076;2023-05-01T15:11:02;10.45;;;9.43;;
37593;SDS011;23441;50.856;6.076;2023-05-01T15:13:27;9.10;;;8.20;;
37593;SDS011;23441;50.856;6.076;2023-05-01T15:15:55;9.15;;;7.63;;
37593;SDS011;23441;50.856;6.076;2023-05-01T15:18:21;8.63;;;7.82;;
37593;SDS011;23441;50.856;6.076;2023-05-01T15:20:47;10.32;;;9.23;;
37593;SDS011;23441;50.856;6.076;2023-05-01T15:23:13;11.85;;;10.15;;
37593;SDS011;23441;50.856;6.076;2023-05-01T15:25:39;12.35;;;10.27;;
37593;SDS011;23441;50.856;6.076;2023-05-01T15:28:07;12.65;;;11.18;;
37593;SDS011;23441;50.856;6.076;2023-05-01T15:30:32;11.65;;;10.40;;